sensor_id;sensor_type;location;lat;lon;timestamp;temperature;humidity
6256;DHT22;3161;48.794;9.784;2023-12-29T00:01:31;9.80;99.90
6256;DHT22;3161;48.794;9.784;2023-12-29T00:03:58;9.80;99.90
6256;DHT22;3161;48.794;9.784;2023-12-29T00:06:26;9.80;99.90
6256;DHT22;3161;48.794;9.784;2023-12-29T00:08:53;9.80;99.90
6256;DHT22;3161;48.794;9.784;2023-12-29T00:11:21;9.90;99.90
6256;DHT22;3161;48.794;9.784;2023-12-29T00:13:49;9.90;99.90
6256;DHT22;3161;48.794;9.784;2023-12-29T00:16:17;9.90;99.90
6256;DHT22;3161;48.794;9.784;2023-12-29T00:18:44;9.90;99.90
6256;DHT22;3161;48.794;9.784;2023-12-29T00:21:12;9.90;99.90
6256;DHT22;3161;48.794;9.784;2023-12-29T00:23:40;9.90;99.90
6256;DHT22;3161;48.794;9.784;2023-12-29T00:26:07;9.90;99.90
6256;DHT22;3161;48.794;9.784;2023-12-29T00:28:35;9.90;99.90
6256;DHT22;3161;48.794;9.784;2023-12-29T00:31:04;9.90;99.90
6256;DHT22;3161;48.794;9.784;2023-12-29T00:33:31;9.90;99.90
6256;DHT22;3161;48.794;9.784;2023-12-29T00:35:59;9.90;99.90
6256;DHT22;3161;48.794;9.784;2023-12-29T00:38:27;9.90;99.90
6256;DHT22;3161;48.794;9.784;2023-12-29T00:40:55;9.90;99.90
6256;DHT22;3161;48.794;9.784;2023-12-29T00:43:22;10.00;99.90
6256;DHT22;3161;48.794;9.784;2023-12-29T00:45:50;10.00;99.90
6256;DHT22;3161;48.794;9.784;2023-12-29T00:48:18;10.00;99.90
6256;DHT22;3161;48.794;9.784;2023-12-29T00:50:46;9.90;99.90
6256;DHT22;3161;48.794;9.784;2023-12-29T00:53:14;10.00;99.90
6256;DHT22;3161;48.794;9.784;2023-12-29T00:55:41;10.00;99.90
6256;DHT22;3161;48.794;9.784;2023-12-29T00:58:09;10.00;99.90
6256;DHT22;3161;48.794;9.784;2023-12-29T01:00:36;10.00;99.90
6256;DHT22;3161;48.794;9.784;2023-12-29T01:03:04;10.00;99.90
6256;DHT22;3161;48.794;9.784;2023-12-29T01:05:32;10.00;99.90
6256;DHT22;3161;48.794;9.784;2023-12-29T01:07:59;10.00;99.90
6256;DHT22;3161;48.794;9.784;2023-12-29T01:10:27;10.00;99.90
6256;DHT22;3161;48.794;9.784;2023-12-29T01:12:54;10.00;99.90
6256;DHT22;3161;48.794;9.784;2023-12-29T01:15:22;10.00;99.90
6256;DHT22;3161;48.794;9.784;2023-12-29T01:17:49;10.00;99.90
6256;DHT22;3161;48.794;9.784;2023-12-29T01:20:17;10.00;99.90
6256;DHT22;3161;48.794;9.784;2023-12-29T01:22:44;10.00;99.90
6256;DHT22;3161;48.794;9.784;2023-12-29T01:25:12;10.00;99.90
6256;DHT22;3161;48.794;9.784;2023-12-29T01:27:39;10.00;99.90
6256;DHT22;3161;48.794;9.784;2023-12-29T01:30:08;10.00;99.90
6256;DHT22;3161;48.794;9.784;2023-12-29T01:32:36;10.00;99.90
6256;DHT22;3161;48.794;9.784;2023-12-29T01:35:04;10.00;99.90
6256;DHT22;3161;48.794;9.784;2023-12-29T01:37:32;10.00;99.90
6256;DHT22;3161;48.794;9.784;2023-12-29T01:40:00;10.00;99.90
6256;DHT22;3161;48.794;9.784;2023-12-29T01:42:27;10.00;99.90
6256;DHT22;3161;48.794;9.784;2023-12-29T01:44:55;10.00;99.90
6256;DHT22;3161;48.794;9.784;2023-12-29T01:47:23;10.10;99.90
6256;DHT22;3161;48.794;9.784;2023-12-29T01:49:51;10.10;99.90
6256;DHT22;3161;48.794;9.784;2023-12-29T01:52:20;10.20;99.90
6256;DHT22;3161;48.794;9.784;2023-12-29T01:54:49;10.20;99.90
6256;DHT22;3161;48.794;9.784;2023-12-29T01:57:19;10.10;99.90
6256;DHT22;3161;48.794;9.784;2023-12-29T01:59:47;10.10;99.90
6256;DHT22;3161;48.794;9.784;2023-12-29T02:02:15;10.10;99.90
6256;DHT22;3161;48.794;9.784;2023-12-29T02:04:45;10.10;99.90
6256;DHT22;3161;48.794;9.784;2023-12-29T02:07:12;10.10;99.90
6256;DHT22;3161;48.794;9.784;2023-12-29T02:09:41;10.00;99.90
6256;DHT22;3161;48.794;9.784;2023-12-29T02:12:08;10.00;99.90
6256;DHT22;3161;48.794;9.784;2023-12-29T02:14:36;10.10;99.90
6256;DHT22;3161;48.794;9.784;2023-12-29T02:17:08;10.20;99.90
6256;DHT22;3161;48.794;9.784;2023-12-29T02:19:42;10.30;99.90
6256;DHT22;3161;48.794;9.784;2023-12-29T02:22:11;10.30;99.90
6256;DHT22;3161;48.794;9.784;2023-12-29T02:24:39;10.30;99.90
6256;DHT22;3161;48.794;9.784;2023-12-29T02:32:42;10.30;99.90
6256;DHT22;3161;48.794;9.784;2023-12-29T02:35:18;10.30;99.90
6256;DHT22;3161;48.794;9.784;2023-12-29T02:37:46;10.30;99.90
6256;DHT22;3161;48.794;9.784;2023-12-29T02:40:14;10.30;99.90
6256;DHT22;3161;48.794;9.784;2023-12-29T02:42:49;10.20;99.90
6256;DHT22;3161;48.794;9.784;2023-12-29T02:45:17;10.20;99.90
6256;DHT22;3161;48.794;9.784;2023-12-29T02:47:45;10.20;99.90
6256;DHT22;3161;48.794;9.784;2023-12-29T02:50:13;10.30;99.90
6256;DHT22;3161;48.794;9.784;2023-12-29T02:52:41;10.30;99.90
6256;DHT22;3161;48.794;9.784;2023-12-29T02:55:08;10.30;99.90
6256;DHT22;3161;48.794;9.784;2023-12-29T02:57:36;10.40;99.90
6256;DHT22;3161;48.794;9.784;2023-12-29T03:00:05;10.40;99.90
6256;DHT22;3161;48.794;9.784;2023-12-29T03:02:32;10.40;99.90
6256;DHT22;3161;48.794;9.784;2023-12-29T03:05:00;10.40;99.90
6256;DHT22;3161;48.794;9.784;2023-12-29T03:07:28;10.40;99.90
6256;DHT22;3161;48.794;9.784;2023-12-29T03:09:56;10.40;99.90
6256;DHT22;3161;48.794;9.784;2023-12-29T03:12:23;10.40;99.90
6256;DHT22;3161;48.794;9.784;2023-12-29T03:14:51;10.40;99.90
6256;DHT22;3161;48.794;9.784;2023-12-29T03:17:18;10.40;99.90
6256;DHT22;3161;48.794;9.784;2023-12-29T03:19:46;10.40;99.90
6256;DHT22;3161;48.794;9.784;2023-12-29T03:22:13;10.40;99.90
6256;DHT22;3161;48.794;9.784;2023-12-29T03:24:41;10.40;99.90
6256;DHT22;3161;48.794;9.784;2023-12-29T03:27:09;10.40;99.90
6256;DHT22;3161;48.794;9.784;2023-12-29T03:29:36;10.40;99.90
6256;DHT22;3161;48.794;9.784;2023-12-29T03:32:04;10.30;99.90
6256;DHT22;3161;48.794;9.784;2023-12-29T03:34:33;10.30;99.90
6256;DHT22;3161;48.794;9.784;2023-12-29T03:37:01;10.30;99.90
6256;DHT22;3161;48.794;9.784;2023-12-29T03:39:28;10.30;99.90
6256;DHT22;3161;48.794;9.784;2023-12-29T03:41:56;10.30;99.90
6256;DHT22;3161;48.794;9.784;2023-12-29T03:44:24;10.30;99.90
6256;DHT22;3161;48.794;9.784;2023-12-29T03:46:51;10.30;99.90
6256;DHT22;3161;48.794;9.784;2023-12-29T03:49:19;10.40;99.90
6256;DHT22;3161;48.794;9.784;2023-12-29T03:51:46;10.30;99.90
6256;DHT22;3161;48.794;9.784;2023-12-29T03:54:14;10.30;99.90
6256;DHT22;3161;48.794;9.784;2023-12-29T03:56:41;10.30;99.90
6256;DHT22;3161;48.794;9.784;2023-12-29T03:59:09;10.30;99.90
6256;DHT22;3161;48.794;9.784;2023-12-29T04:01:36;10.30;99.90
6256;DHT22;3161;48.794;9.784;2023-12-29T04:04:04;10.30;99.90
6256;DHT22;3161;48.794;9.784;2023-12-29T04:06:31;10.30;99.90
6256;DHT22;3161;48.794;9.784;2023-12-29T04:08:59;10.30;99.90
6256;DHT22;3161;48.794;9.784;2023-12-29T04:11:27;10.30;99.90
6256;DHT22;3161;48.794;9.784;2023-12-29T04:13:54;10.40;99.90
6256;DHT22;3161;48.794;9.784;2023-12-29T04:16:22;10.40;99.90
6256;DHT22;3161;48.794;9.784;2023-12-29T04:18:49;10.40;99.90
6256;DHT22;3161;48.794;9.784;2023-12-29T04:21:17;10.30;99.90
6256;DHT22;3161;48.794;9.784;2023-12-29T04:23:44;10.30;99.90
6256;DHT22;3161;48.794;9.784;2023-12-29T04:26:12;10.30;99.90
6256;DHT22;3161;48.794;9.784;2023-12-29T04:28:39;10.30;99.90
6256;DHT22;3161;48.794;9.784;2023-12-29T04:31:07;10.30;99.90
6256;DHT22;3161;48.794;9.784;2023-12-29T04:33:34;10.20;99.90
6256;DHT22;3161;48.794;9.784;2023-12-29T04:36:02;10.30;99.90
6256;DHT22;3161;48.794;9.784;2023-12-29T04:38:30;10.40;99.90
6256;DHT22;3161;48.794;9.784;2023-12-29T04:40:57;10.30;99.90
6256;DHT22;3161;48.794;9.784;2023-12-29T04:43:25;10.30;99.90
6256;DHT22;3161;48.794;9.784;2023-12-29T04:45:52;10.30;99.90
6256;DHT22;3161;48.794;9.784;2023-12-29T04:48:20;10.30;99.90
6256;DHT22;3161;48.794;9.784;2023-12-29T04:50:47;10.20;99.90
6256;DHT22;3161;48.794;9.784;2023-12-29T04:53:15;10.20;99.90
6256;DHT22;3161;48.794;9.784;2023-12-29T04:55:42;10.20;99.90
6256;DHT22;3161;48.794;9.784;2023-12-29T04:58:10;10.20;99.90
6256;DHT22;3161;48.794;9.784;2023-12-29T05:00:37;10.20;99.90
6256;DHT22;3161;48.794;9.784;2023-12-29T05:03:05;10.30;99.90
6256;DHT22;3161;48.794;9.784;2023-12-29T05:05:33;10.30;99.90
6256;DHT22;3161;48.794;9.784;2023-12-29T05:08:00;10.30;99.90
6256;DHT22;3161;48.794;9.784;2023-12-29T05:10:28;10.30;99.90
6256;DHT22;3161;48.794;9.784;2023-12-29T05:12:55;10.30;99.90
6256;DHT22;3161;48.794;9.784;2023-12-29T05:15:23;10.30;99.90
6256;DHT22;3161;48.794;9.784;2023-12-29T05:17:50;10.30;99.90
6256;DHT22;3161;48.794;9.784;2023-12-29T05:20:18;10.30;99.90
6256;DHT22;3161;48.794;9.784;2023-12-29T05:22:45;10.30;99.90
6256;DHT22;3161;48.794;9.784;2023-12-29T05:25:13;10.30;99.90
6256;DHT22;3161;48.794;9.784;2023-12-29T05:27:40;10.30;99.90
6256;DHT22;3161;48.794;9.784;2023-12-29T05:30:09;10.30;99.90
6256;DHT22;3161;48.794;9.784;2023-12-29T05:32:37;10.30;99.90
6256;DHT22;3161;48.794;9.784;2023-12-29T05:35:05;10.20;99.90
6256;DHT22;3161;48.794;9.784;2023-12-29T05:37:33;10.30;99.90
6256;DHT22;3161;48.794;9.784;2023-12-29T05:40:01;10.20;99.90
6256;DHT22;3161;48.794;9.784;2023-12-29T05:42:28;10.20;99.90
6256;DHT22;3161;48.794;9.784;2023-12-29T05:45:00;10.20;99.90
6256;DHT22;3161;48.794;9.784;2023-12-29T05:47:28;10.20;99.90
6256;DHT22;3161;48.794;9.784;2023-12-29T05:49:56;10.20;99.90
6256;DHT22;3161;48.794;9.784;2023-12-29T05:52:23;10.20;99.90
6256;DHT22;3161;48.794;9.784;2023-12-29T05:54:51;10.20;99.90
6256;DHT22;3161;48.794;9.784;2023-12-29T05:57:18;10.10;99.90
6256;DHT22;3161;48.794;9.784;2023-12-29T05:59:46;10.10;99.90
6256;DHT22;3161;48.794;9.784;2023-12-29T06:02:13;10.10;99.90
6256;DHT22;3161;48.794;9.784;2023-12-29T06:04:41;10.10;99.90
6256;DHT22;3161;48.794;9.784;2023-12-29T06:07:08;10.20;99.90
6256;DHT22;3161;48.794;9.784;2023-12-29T06:09:36;10.20;99.90
6256;DHT22;3161;48.794;9.784;2023-12-29T06:12:04;10.20;99.90
6256;DHT22;3161;48.794;9.784;2023-12-29T06:14:32;10.10;99.90
6256;DHT22;3161;48.794;9.784;2023-12-29T06:16:59;10.10;99.90
6256;DHT22;3161;48.794;9.784;2023-12-29T06:19:28;10.10;99.90
6256;DHT22;3161;48.794;9.784;2023-12-29T06:21:57;10.10;99.90
6256;DHT22;3161;48.794;9.784;2023-12-29T06:24:25;10.10;99.90
6256;DHT22;3161;48.794;9.784;2023-12-29T06:26:52;10.10;99.90
6256;DHT22;3161;48.794;9.784;2023-12-29T06:29:20;10.10;99.90
6256;DHT22;3161;48.794;9.784;2023-12-29T06:31:47;10.10;99.90
6256;DHT22;3161;48.794;9.784;2023-12-29T06:34:15;10.10;99.90
6256;DHT22;3161;48.794;9.784;2023-12-29T06:36:42;10.10;99.90
6256;DHT22;3161;48.794;9.784;2023-12-29T06:39:10;10.00;99.90
6256;DHT22;3161;48.794;9.784;2023-12-29T06:41:37;10.00;99.90
6256;DHT22;3161;48.794;9.784;2023-12-29T06:44:05;10.00;99.90
6256;DHT22;3161;48.794;9.784;2023-12-29T06:46:32;10.00;99.90
6256;DHT22;3161;48.794;9.784;2023-12-29T06:49:00;10.00;99.90
6256;DHT22;3161;48.794;9.784;2023-12-29T06:51:27;10.00;99.90
6256;DHT22;3161;48.794;9.784;2023-12-29T06:53:55;10.00;99.90
6256;DHT22;3161;48.794;9.784;2023-12-29T06:56:22;9.90;99.90
6256;DHT22;3161;48.794;9.784;2023-12-29T06:58:50;9.90;99.90
6256;DHT22;3161;48.794;9.784;2023-12-29T07:01:17;9.90;99.90
6256;DHT22;3161;48.794;9.784;2023-12-29T07:03:45;9.90;99.90
6256;DHT22;3161;48.794;9.784;2023-12-29T07:06:12;9.90;99.90
6256;DHT22;3161;48.794;9.784;2023-12-29T07:08:40;9.90;99.90
6256;DHT22;3161;48.794;9.784;2023-12-29T07:11:11;9.90;99.90
6256;DHT22;3161;48.794;9.784;2023-12-29T07:13:39;10.00;99.90
6256;DHT22;3161;48.794;9.784;2023-12-29T07:16:07;10.00;99.90
6256;DHT22;3161;48.794;9.784;2023-12-29T07:18:34;10.00;99.90
6256;DHT22;3161;48.794;9.784;2023-12-29T07:21:03;9.90;99.90
6256;DHT22;3161;48.794;9.784;2023-12-29T07:23:30;9.90;99.90
6256;DHT22;3161;48.794;9.784;2023-12-29T07:25:58;9.90;99.90
6256;DHT22;3161;48.794;9.784;2023-12-29T07:28:25;9.90;99.90
6256;DHT22;3161;48.794;9.784;2023-12-29T07:30:53;9.90;99.90
6256;DHT22;3161;48.794;9.784;2023-12-29T07:33:21;10.00;99.90
6256;DHT22;3161;48.794;9.784;2023-12-29T07:35:51;9.90;99.90
6256;DHT22;3161;48.794;9.784;2023-12-29T07:38:18;10.00;99.90
6256;DHT22;3161;48.794;9.784;2023-12-29T07:40:46;10.00;99.90
6256;DHT22;3161;48.794;9.784;2023-12-29T07:43:17;10.00;99.90
6256;DHT22;3161;48.794;9.784;2023-12-29T07:45:44;10.00;99.90
6256;DHT22;3161;48.794;9.784;2023-12-29T07:48:12;10.00;99.90
6256;DHT22;3161;48.794;9.784;2023-12-29T07:50:39;10.00;99.90
6256;DHT22;3161;48.794;9.784;2023-12-29T07:53:07;10.00;99.90
6256;DHT22;3161;48.794;9.784;2023-12-29T07:55:38;10.00;99.90
6256;DHT22;3161;48.794;9.784;2023-12-29T07:58:06;10.10;99.90
6256;DHT22;3161;48.794;9.784;2023-12-29T08:00:36;10.10;99.90
6256;DHT22;3161;48.794;9.784;2023-12-29T08:03:04;10.10;99.90
6256;DHT22;3161;48.794;9.784;2023-12-29T08:05:32;10.10;99.90
6256;DHT22;3161;48.794;9.784;2023-12-29T08:08:00;10.10;99.90
6256;DHT22;3161;48.794;9.784;2023-12-29T08:10:27;10.10;99.90
6256;DHT22;3161;48.794;9.784;2023-12-29T08:12:55;10.10;99.90
6256;DHT22;3161;48.794;9.784;2023-12-29T08:15:22;10.20;99.90
6256;DHT22;3161;48.794;9.784;2023-12-29T08:17:50;10.30;99.90
6256;DHT22;3161;48.794;9.784;2023-12-29T08:20:17;10.30;99.90
6256;DHT22;3161;48.794;9.784;2023-12-29T08:22:46;10.40;99.90
6256;DHT22;3161;48.794;9.784;2023-12-29T08:25:14;10.40;99.90
6256;DHT22;3161;48.794;9.784;2023-12-29T08:27:42;10.50;99.90
6256;DHT22;3161;48.794;9.784;2023-12-29T08:30:10;10.60;99.90
6256;DHT22;3161;48.794;9.784;2023-12-29T08:32:38;10.60;99.90
6256;DHT22;3161;48.794;9.784;2023-12-29T08:35:05;10.70;99.90
6256;DHT22;3161;48.794;9.784;2023-12-29T08:37:33;10.70;99.90
6256;DHT22;3161;48.794;9.784;2023-12-29T08:40:01;10.70;99.90
6256;DHT22;3161;48.794;9.784;2023-12-29T08:42:29;10.80;99.90
6256;DHT22;3161;48.794;9.784;2023-12-29T08:44:58;10.80;99.90
6256;DHT22;3161;48.794;9.784;2023-12-29T08:47:25;10.80;99.90
6256;DHT22;3161;48.794;9.784;2023-12-29T08:49:53;10.90;99.90
6256;DHT22;3161;48.794;9.784;2023-12-29T08:52:21;11.00;99.90
6256;DHT22;3161;48.794;9.784;2023-12-29T08:54:48;11.00;99.90
6256;DHT22;3161;48.794;9.784;2023-12-29T08:57:16;11.10;99.90
6256;DHT22;3161;48.794;9.784;2023-12-29T08:59:43;11.20;99.90
6256;DHT22;3161;48.794;9.784;2023-12-29T09:02:11;11.20;99.90
6256;DHT22;3161;48.794;9.784;2023-12-29T09:04:39;11.20;99.90
6256;DHT22;3161;48.794;9.784;2023-12-29T09:07:06;11.30;99.90
6256;DHT22;3161;48.794;9.784;2023-12-29T09:09:33;11.30;99.90
6256;DHT22;3161;48.794;9.784;2023-12-29T09:12:01;11.30;99.90
6256;DHT22;3161;48.794;9.784;2023-12-29T09:14:29;11.40;99.90
6256;DHT22;3161;48.794;9.784;2023-12-29T09:16:58;11.40;99.90
6256;DHT22;3161;48.794;9.784;2023-12-29T09:19:25;11.40;99.90
6256;DHT22;3161;48.794;9.784;2023-12-29T09:21:53;11.40;99.90
6256;DHT22;3161;48.794;9.784;2023-12-29T09:24:21;11.40;99.90
6256;DHT22;3161;48.794;9.784;2023-12-29T09:26:48;11.40;99.90
6256;DHT22;3161;48.794;9.784;2023-12-29T09:29:17;11.40;99.90
6256;DHT22;3161;48.794;9.784;2023-12-29T09:31:45;11.40;99.90
6256;DHT22;3161;48.794;9.784;2023-12-29T09:34:12;11.40;99.90
6256;DHT22;3161;48.794;9.784;2023-12-29T09:36:40;11.40;99.90
6256;DHT22;3161;48.794;9.784;2023-12-29T09:39:07;11.50;99.90
6256;DHT22;3161;48.794;9.784;2023-12-29T09:41:37;11.50;99.90
6256;DHT22;3161;48.794;9.784;2023-12-29T09:44:07;11.50;99.90
6256;DHT22;3161;48.794;9.784;2023-12-29T09:46:36;11.50;99.90
6256;DHT22;3161;48.794;9.784;2023-12-29T09:49:04;11.50;99.90
6256;DHT22;3161;48.794;9.784;2023-12-29T09:51:34;11.50;99.90
6256;DHT22;3161;48.794;9.784;2023-12-29T09:54:02;11.50;99.90
6256;DHT22;3161;48.794;9.784;2023-12-29T09:56:31;11.50;99.90
6256;DHT22;3161;48.794;9.784;2023-12-29T09:58:58;11.60;99.90
6256;DHT22;3161;48.794;9.784;2023-12-29T10:01:27;11.60;99.90
6256;DHT22;3161;48.794;9.784;2023-12-29T10:03:59;11.60;99.90
6256;DHT22;3161;48.794;9.784;2023-12-29T10:06:27;11.70;99.90
6256;DHT22;3161;48.794;9.784;2023-12-29T10:08:56;11.60;99.90
6256;DHT22;3161;48.794;9.784;2023-12-29T10:11:26;11.60;99.90
6256;DHT22;3161;48.794;9.784;2023-12-29T10:13:55;11.60;99.90
6256;DHT22;3161;48.794;9.784;2023-12-29T10:16:39;11.70;99.90
6256;DHT22;3161;48.794;9.784;2023-12-29T10:19:23;11.60;99.90
6256;DHT22;3161;48.794;9.784;2023-12-29T10:24:21;11.70;99.90
6256;DHT22;3161;48.794;9.784;2023-12-29T10:26:50;11.80;99.90
6256;DHT22;3161;48.794;9.784;2023-12-29T10:29:19;11.90;99.90
6256;DHT22;3161;48.794;9.784;2023-12-29T10:31:47;11.90;99.90
6256;DHT22;3161;48.794;9.784;2023-12-29T10:34:23;11.90;99.90
6256;DHT22;3161;48.794;9.784;2023-12-29T10:36:58;11.90;99.90
6256;DHT22;3161;48.794;9.784;2023-12-29T10:39:28;11.90;99.90
6256;DHT22;3161;48.794;9.784;2023-12-29T10:42:06;12.00;99.90
6256;DHT22;3161;48.794;9.784;2023-12-29T10:44:35;12.00;99.90
6256;DHT22;3161;48.794;9.784;2023-12-29T10:47:10;12.00;99.90
6256;DHT22;3161;48.794;9.784;2023-12-29T10:49:39;12.10;99.90
6256;DHT22;3161;48.794;9.784;2023-12-29T10:52:14;12.10;99.90
6256;DHT22;3161;48.794;9.784;2023-12-29T10:54:44;12.10;99.90
6256;DHT22;3161;48.794;9.784;2023-12-29T10:57:12;12.10;99.90
6256;DHT22;3161;48.794;9.784;2023-12-29T10:59:40;12.20;99.90
6256;DHT22;3161;48.794;9.784;2023-12-29T11:02:12;12.20;99.90
6256;DHT22;3161;48.794;9.784;2023-12-29T11:04:44;12.30;99.90
6256;DHT22;3161;48.794;9.784;2023-12-29T11:07:12;12.30;99.90
6256;DHT22;3161;48.794;9.784;2023-12-29T11:09:41;12.40;99.90
6256;DHT22;3161;48.794;9.784;2023-12-29T11:12:10;12.50;99.90
6256;DHT22;3161;48.794;9.784;2023-12-29T11:14:41;12.70;99.90
6256;DHT22;3161;48.794;9.784;2023-12-29T11:17:11;12.90;99.90
6256;DHT22;3161;48.794;9.784;2023-12-29T11:19:40;13.10;99.90
6256;DHT22;3161;48.794;9.784;2023-12-29T11:22:09;13.30;99.90
6256;DHT22;3161;48.794;9.784;2023-12-29T11:24:37;13.50;99.90
6256;DHT22;3161;48.794;9.784;2023-12-29T11:27:06;13.60;99.90
6256;DHT22;3161;48.794;9.784;2023-12-29T11:29:35;13.70;99.90
6256;DHT22;3161;48.794;9.784;2023-12-29T11:32:04;13.90;99.90
6256;DHT22;3161;48.794;9.784;2023-12-29T11:34:42;13.90;99.90
6256;DHT22;3161;48.794;9.784;2023-12-29T11:40:26;13.80;99.90
6256;DHT22;3161;48.794;9.784;2023-12-29T11:42:52;13.80;99.90
6256;DHT22;3161;48.794;9.784;2023-12-29T11:47:53;13.80;99.90
6256;DHT22;3161;48.794;9.784;2023-12-29T11:50:34;13.70;99.90
6256;DHT22;3161;48.794;9.784;2023-12-29T11:53:03;13.60;99.90
6256;DHT22;3161;48.794;9.784;2023-12-29T11:55:36;13.60;99.90
6256;DHT22;3161;48.794;9.784;2023-12-29T11:58:04;13.60;99.90
6256;DHT22;3161;48.794;9.784;2023-12-29T12:00:44;13.60;99.90
6256;DHT22;3161;48.794;9.784;2023-12-29T12:03:17;13.50;99.90
6256;DHT22;3161;48.794;9.784;2023-12-29T12:05:49;13.40;99.90
6256;DHT22;3161;48.794;9.784;2023-12-29T12:08:36;13.40;99.90
6256;DHT22;3161;48.794;9.784;2023-12-29T12:13:59;13.30;99.90
6256;DHT22;3161;48.794;9.784;2023-12-29T12:16:47;13.20;99.90
6256;DHT22;3161;48.794;9.784;2023-12-29T12:19:15;13.10;99.90
6256;DHT22;3161;48.794;9.784;2023-12-29T12:21:46;13.00;99.90
6256;DHT22;3161;48.794;9.784;2023-12-29T12:24:20;12.90;99.90
6256;DHT22;3161;48.794;9.784;2023-12-29T12:26:48;12.80;99.90
6256;DHT22;3161;48.794;9.784;2023-12-29T12:29:17;12.80;99.90
6256;DHT22;3161;48.794;9.784;2023-12-29T12:31:56;12.70;99.90
6256;DHT22;3161;48.794;9.784;2023-12-29T12:34:24;12.70;99.90
6256;DHT22;3161;48.794;9.784;2023-12-29T12:36:53;12.70;99.90
6256;DHT22;3161;48.794;9.784;2023-12-29T12:39:37;12.70;99.90
6256;DHT22;3161;48.794;9.784;2023-12-29T12:41:56;12.70;99.90
6256;DHT22;3161;48.794;9.784;2023-12-29T12:44:24;12.70;99.90
6256;DHT22;3161;48.794;9.784;2023-12-29T12:46:56;12.90;99.90
6256;DHT22;3161;48.794;9.784;2023-12-29T12:49:24;13.20;99.90
6256;DHT22;3161;48.794;9.784;2023-12-29T12:51:53;13.60;99.90
6256;DHT22;3161;48.794;9.784;2023-12-29T12:54:21;14.10;99.90
6256;DHT22;3161;48.794;9.784;2023-12-29T12:56:49;14.30;99.90
6256;DHT22;3161;48.794;9.784;2023-12-29T12:59:17;14.40;99.90
6256;DHT22;3161;48.794;9.784;2023-12-29T13:01:45;14.50;99.90
6256;DHT22;3161;48.794;9.784;2023-12-29T13:04:13;14.60;99.90
6256;DHT22;3161;48.794;9.784;2023-12-29T13:06:42;14.70;99.90
6256;DHT22;3161;48.794;9.784;2023-12-29T13:09:10;14.90;99.90
6256;DHT22;3161;48.794;9.784;2023-12-29T13:11:41;15.00;99.90
6256;DHT22;3161;48.794;9.784;2023-12-29T13:14:18;14.80;99.90
6256;DHT22;3161;48.794;9.784;2023-12-29T13:16:38;14.90;99.90
6256;DHT22;3161;48.794;9.784;2023-12-29T13:19:25;14.80;99.90
6256;DHT22;3161;48.794;9.784;2023-12-29T13:21:54;14.70;99.90
6256;DHT22;3161;48.794;9.784;2023-12-29T13:24:23;14.60;99.90
6256;DHT22;3161;48.794;9.784;2023-12-29T13:26:57;14.50;99.90
6256;DHT22;3161;48.794;9.784;2023-12-29T13:29:25;14.30;99.90
6256;DHT22;3161;48.794;9.784;2023-12-29T13:32:00;14.00;99.90
6256;DHT22;3161;48.794;9.784;2023-12-29T13:37:43;13.70;99.90
6256;DHT22;3161;48.794;9.784;2023-12-29T13:40:28;13.60;99.90
6256;DHT22;3161;48.794;9.784;2023-12-29T13:42:59;13.50;99.90
6256;DHT22;3161;48.794;9.784;2023-12-29T13:45:27;13.40;99.90
6256;DHT22;3161;48.794;9.784;2023-12-29T13:47:56;13.40;99.90
6256;DHT22;3161;48.794;9.784;2023-12-29T13:50:24;13.50;99.90
6256;DHT22;3161;48.794;9.784;2023-12-29T13:52:53;13.50;99.90
6256;DHT22;3161;48.794;9.784;2023-12-29T13:55:24;13.50;99.90
6256;DHT22;3161;48.794;9.784;2023-12-29T13:57:54;13.40;99.90
6256;DHT22;3161;48.794;9.784;2023-12-29T14:00:24;13.40;99.90
6256;DHT22;3161;48.794;9.784;2023-12-29T14:02:58;13.30;99.90
6256;DHT22;3161;48.794;9.784;2023-12-29T14:05:39;13.30;99.90
6256;DHT22;3161;48.794;9.784;2023-12-29T14:08:23;13.30;99.90
6256;DHT22;3161;48.794;9.784;2023-12-29T14:10:47;13.20;99.90
6256;DHT22;3161;48.794;9.784;2023-12-29T14:13:16;13.20;99.90
6256;DHT22;3161;48.794;9.784;2023-12-29T14:15:46;13.10;99.90
6256;DHT22;3161;48.794;9.784;2023-12-29T14:21:03;13.00;99.90
6256;DHT22;3161;48.794;9.784;2023-12-29T14:23:30;12.90;99.90
6256;DHT22;3161;48.794;9.784;2023-12-29T14:26:04;12.90;99.90
6256;DHT22;3161;48.794;9.784;2023-12-29T14:28:32;12.90;99.90
6256;DHT22;3161;48.794;9.784;2023-12-29T14:31:03;12.90;99.90
6256;DHT22;3161;48.794;9.784;2023-12-29T14:33:30;12.90;99.90
6256;DHT22;3161;48.794;9.784;2023-12-29T14:35:58;12.90;99.90
6256;DHT22;3161;48.794;9.784;2023-12-29T14:38:25;12.80;99.90
6256;DHT22;3161;48.794;9.784;2023-12-29T14:40:53;12.80;99.90
6256;DHT22;3161;48.794;9.784;2023-12-29T14:43:20;12.80;99.90
6256;DHT22;3161;48.794;9.784;2023-12-29T14:45:48;12.70;99.90
6256;DHT22;3161;48.794;9.784;2023-12-29T14:48:17;12.70;99.90
6256;DHT22;3161;48.794;9.784;2023-12-29T14:50:45;12.70;99.90
6256;DHT22;3161;48.794;9.784;2023-12-29T14:53:13;12.70;99.90
6256;DHT22;3161;48.794;9.784;2023-12-29T14:55:41;12.60;99.90
6256;DHT22;3161;48.794;9.784;2023-12-29T14:58:08;12.60;99.90
6256;DHT22;3161;48.794;9.784;2023-12-29T15:00:36;12.60;99.90
6256;DHT22;3161;48.794;9.784;2023-12-29T15:03:04;12.50;99.90
6256;DHT22;3161;48.794;9.784;2023-12-29T15:05:31;12.50;99.90
6256;DHT22;3161;48.794;9.784;2023-12-29T15:07:59;12.40;99.90
6256;DHT22;3161;48.794;9.784;2023-12-29T15:10:26;12.40;99.90
6256;DHT22;3161;48.794;9.784;2023-12-29T15:12:54;12.30;99.90
6256;DHT22;3161;48.794;9.784;2023-12-29T15:15:21;12.30;99.90
6256;DHT22;3161;48.794;9.784;2023-12-29T15:17:49;12.20;99.90
6256;DHT22;3161;48.794;9.784;2023-12-29T15:20:16;12.20;99.90
6256;DHT22;3161;48.794;9.784;2023-12-29T15:22:44;12.20;99.90
6256;DHT22;3161;48.794;9.784;2023-12-29T15:25:13;12.10;99.90
6256;DHT22;3161;48.794;9.784;2023-12-29T15:27:40;12.10;99.90
6256;DHT22;3161;48.794;9.784;2023-12-29T15:30:08;12.10;99.90
6256;DHT22;3161;48.794;9.784;2023-12-29T15:32:38;12.00;99.90
6256;DHT22;3161;48.794;9.784;2023-12-29T15:35:06;12.00;99.90
6256;DHT22;3161;48.794;9.784;2023-12-29T15:37:33;12.00;99.90
6256;DHT22;3161;48.794;9.784;2023-12-29T15:40:02;11.90;99.90
6256;DHT22;3161;48.794;9.784;2023-12-29T15:42:32;11.80;99.90
6256;DHT22;3161;48.794;9.784;2023-12-29T15:44:59;11.80;99.90
6256;DHT22;3161;48.794;9.784;2023-12-29T15:47:27;11.80;99.90
6256;DHT22;3161;48.794;9.784;2023-12-29T15:49:54;11.70;99.90
6256;DHT22;3161;48.794;9.784;2023-12-29T15:52:22;11.60;99.90
6256;DHT22;3161;48.794;9.784;2023-12-29T15:54:49;11.60;99.90
6256;DHT22;3161;48.794;9.784;2023-12-29T15:57:17;11.60;99.90
6256;DHT22;3161;48.794;9.784;2023-12-29T15:59:44;11.50;99.90
6256;DHT22;3161;48.794;9.784;2023-12-29T16:02:12;11.60;99.90
6256;DHT22;3161;48.794;9.784;2023-12-29T16:04:39;11.50;99.90
6256;DHT22;3161;48.794;9.784;2023-12-29T16:07:07;11.50;99.90
6256;DHT22;3161;48.794;9.784;2023-12-29T16:09:35;11.50;99.90
6256;DHT22;3161;48.794;9.784;2023-12-29T16:12:02;11.40;99.90
6256;DHT22;3161;48.794;9.784;2023-12-29T16:14:30;11.40;99.90
6256;DHT22;3161;48.794;9.784;2023-12-29T16:16:58;11.40;99.90
6256;DHT22;3161;48.794;9.784;2023-12-29T16:19:25;11.40;99.90
6256;DHT22;3161;48.794;9.784;2023-12-29T16:21:53;11.40;99.90
6256;DHT22;3161;48.794;9.784;2023-12-29T16:24:20;11.30;99.90
6256;DHT22;3161;48.794;9.784;2023-12-29T16:26:49;11.30;99.90
6256;DHT22;3161;48.794;9.784;2023-12-29T16:29:16;11.30;99.90
6256;DHT22;3161;48.794;9.784;2023-12-29T16:31:44;11.30;99.90
6256;DHT22;3161;48.794;9.784;2023-12-29T16:34:12;11.20;99.90